createdAt,value
2023-02-08T00:00:41.436Z,99.9
2023-02-08T00:02:38.675Z,99.9
2023-02-08T00:08:38.762Z,99.9
2023-02-08T00:10:36.230Z,99.9
2023-02-08T00:12:33.643Z,99.9
2023-02-08T00:14:31.061Z,99.9
2023-02-08T00:16:28.518Z,99.9
2023-02-08T00:18:26.036Z,99.9
2023-02-08T00:20:31.484Z,99.9
2023-02-08T00:22:28.904Z,99.9
2023-02-08T00:26:23.799Z,99.9
2023-02-08T00:28:21.340Z,99.9
2023-02-08T00:30:18.756Z,99.9
2023-02-08T00:32:16.221Z,99.9
2023-02-08T00:34:21.513Z,99.9
2023-02-08T00:36:19.047Z,99.9
2023-02-08T00:51:11.831Z,99.9
2023-02-08T00:53:09.257Z,99.9
2023-02-08T00:55:06.700Z,99.9
2023-02-08T00:57:04.130Z,99.9
2023-02-08T00:59:01.661Z,99.9
2023-02-08T01:01:07.088Z,99.9
2023-02-08T01:03:04.463Z,99.9
2023-02-08T01:05:01.919Z,99.9
2023-02-08T01:06:59.418Z,99.9
2023-02-08T01:12:51.727Z,99.9
2023-02-08T01:14:57.145Z,99.9
2023-02-08T01:16:54.566Z,99.9
2023-02-08T01:18:51.997Z,99.9
2023-02-08T01:20:49.540Z,99.9
2023-02-08T01:26:41.694Z,99.9
2023-02-08T01:28:47.253Z,99.9
2023-02-08T01:32:42.102Z,99.9
2023-02-08T01:33:44.798Z,99.9
2023-02-08T01:35:42.231Z,99.9
2023-02-08T01:37:39.667Z,99.9
2023-02-08T01:39:37.207Z,99.9
2023-02-08T01:41:42.497Z,99.9
2023-02-08T01:43:39.900Z,99.9
2023-02-08T01:49:32.202Z,99.9
2023-02-08T01:53:27.134Z,99.9
2023-02-08T01:55:32.434Z,99.9
2023-02-08T01:57:30.133Z,99.9
2023-02-08T01:59:27.493Z,99.9
2023-02-08T02:03:22.379Z,99.9
2023-02-08T02:05:19.870Z,99.9
2023-02-08T02:07:17.296Z,99.9
2023-02-08T02:09:22.705Z,99.9
2023-02-08T02:11:20.241Z,99.9
2023-02-08T02:19:10.132Z,99.9
2023-02-08T02:21:07.563Z,99.9
2023-02-08T02:23:12.989Z,99.9
2023-02-08T02:25:10.341Z,99.9
2023-02-08T02:27:07.855Z,99.9
2023-02-08T02:28:10.537Z,99.9
2023-02-08T02:34:02.812Z,99.9
2023-02-08T02:36:08.093Z,99.9
2023-02-08T02:40:03.037Z,99.9
2023-02-08T02:42:00.451Z,99.9
2023-02-08T02:43:57.952Z,99.9
2023-02-08T02:47:54.283Z,99.9
2023-02-08T02:53:54.591Z,99.9
2023-02-08T02:55:52.020Z,99.9
2023-02-08T02:57:49.508Z,99.9
2023-02-08T02:59:47.107Z,99.9
2023-02-08T03:01:44.423Z,99.9
2023-02-08T03:03:49.825Z,99.9
2023-02-08T03:05:47.274Z,99.9
2023-02-08T03:07:44.790Z,99.9
2023-02-08T03:09:42.174Z,99.9
2023-02-08T03:11:39.563Z,99.9
2023-02-08T03:13:36.972Z,99.9
2023-02-08T03:15:34.336Z,99.9
2023-02-08T03:17:39.657Z,99.9
2023-02-08T03:19:37.126Z,99.9
2023-02-08T03:24:01.404Z,99.9
2023-02-08T03:27:56.241Z,99.9
2023-02-08T03:30:01.670Z,99.9
2023-02-08T03:31:59.136Z,99.9
2023-02-08T03:33:56.409Z,99.9
2023-02-08T03:35:53.825Z,99.9
2023-02-08T03:37:51.212Z,99.9
2023-02-08T03:39:48.630Z,99.9
2023-02-08T03:41:46.007Z,99.9
2023-02-08T03:43:51.382Z,99.9
2023-02-08T03:45:48.970Z,99.9
2023-02-08T03:47:46.222Z,99.9
2023-02-08T03:49:43.690Z,99.9
2023-02-08T03:51:41.106Z,99.9
2023-02-08T03:53:38.481Z,99.9
2023-02-08T03:55:35.880Z,99.9
2023-02-08T03:57:41.399Z,99.9
2023-02-08T03:59:38.796Z,99.9
2023-02-08T04:05:31.201Z,99.9
2023-02-08T04:11:31.236Z,99.9
2023-02-08T04:16:28.790Z,99.9
2023-02-08T04:20:23.566Z,99.9
2023-02-08T04:22:20.940Z,99.9
2023-02-08T04:24:26.329Z,99.9
2023-02-08T04:26:23.734Z,99.9
2023-02-08T04:30:18.617Z,99.9
2023-02-08T04:32:15.997Z,99.9
2023-02-08T04:34:13.402Z,99.9
2023-02-08T04:36:10.915Z,99.9
2023-02-08T04:38:16.190Z,99.9
2023-02-08T04:40:13.606Z,99.9
2023-02-08T04:42:11.076Z,99.9
2023-02-08T04:48:03.340Z,99.9
2023-02-08T04:50:00.748Z,99.9
2023-02-08T04:52:06.140Z,99.9
2023-02-08T04:54:03.510Z,99.9
2023-02-08T04:56:01.006Z,99.9
2023-02-08T04:57:58.418Z,99.9
2023-02-08T04:59:55.874Z,99.9
2023-02-08T05:01:53.477Z,99.9
2023-02-08T05:03:50.875Z,99.9
2023-02-08T05:05:56.143Z,99.9
2023-02-08T05:07:53.620Z,99.9
2023-02-08T05:09:51.121Z,99.9
2023-02-08T05:10:53.755Z,99.9
2023-02-08T05:12:51.138Z,99.9
2023-02-08T05:14:48.642Z,99.9
2023-02-08T05:16:46.115Z,99.9
2023-02-08T05:18:51.389Z,99.9
2023-02-08T05:22:46.250Z,99.9
2023-02-08T05:24:43.645Z,99.9
2023-02-08T05:26:41.181Z,99.9
2023-02-08T05:30:36.006Z,99.9
2023-02-08T05:32:41.380Z,99.9
2023-02-08T05:36:36.182Z,99.9
2023-02-08T05:40:31.032Z,99.9
2023-02-08T05:42:28.506Z,99.9
2023-02-08T05:44:25.987Z,99.9
2023-02-08T05:46:31.323Z,99.9
2023-02-08T05:50:26.113Z,99.9
2023-02-08T05:52:23.499Z,99.9
2023-02-08T05:58:15.930Z,99.9
2023-02-08T06:00:21.311Z,99.9
2023-02-08T06:02:18.774Z,99.9
2023-02-08T06:04:16.278Z,99.9
2023-02-08T06:07:16.393Z,99.9
2023-02-08T06:11:11.298Z,99.9
2023-02-08T06:13:16.671Z,99.9
2023-02-08T06:15:14.122Z,99.9
2023-02-08T06:17:11.620Z,99.9
2023-02-08T06:19:09.121Z,99.9
2023-02-08T06:23:04.050Z,99.9
2023-02-08T06:25:01.551Z,99.9
2023-02-08T06:27:06.932Z,99.9
2023-02-08T06:29:04.393Z,99.9
2023-02-08T06:31:01.814Z,99.9
2023-02-08T06:32:59.254Z,99.9
2023-02-08T06:34:56.693Z,99.9
2023-02-08T06:36:54.084Z,99.9
2023-02-08T06:38:51.554Z,99.9
2023-02-08T06:42:54.326Z,99.9
2023-02-08T06:44:55.312Z,99.9
2023-02-08T06:50:44.469Z,99.9
2023-02-08T06:52:41.591Z,99.9
2023-02-08T06:54:46.985Z,99.9
2023-02-08T06:56:44.440Z,99.9
2023-02-08T06:58:41.917Z,99.9
2023-02-08T07:02:56.415Z,99.9
2023-02-08T07:04:53.830Z,99.9
2023-02-08T07:08:56.769Z,99.9
2023-02-08T07:12:51.548Z,99.9
2023-02-08T07:16:46.535Z,99.9
2023-02-08T07:18:43.922Z,99.9
2023-02-08T07:20:49.275Z,99.9
2023-02-08T07:22:46.667Z,99.9
2023-02-08T07:24:44.110Z,99.9
2023-02-08T07:26:41.505Z,99.9
2023-02-08T07:28:38.970Z,99.9
2023-02-08T07:30:36.351Z,99.9
2023-02-08T07:32:34.856Z,99.9
2023-02-08T07:34:39.271Z,99.9
2023-02-08T07:36:36.660Z,99.9
2023-02-08T07:40:31.588Z,99.9
2023-02-08T07:42:28.955Z,99.9
2023-02-08T07:44:26.416Z,99.9
2023-02-08T07:46:23.985Z,99.9
2023-02-08T07:48:29.365Z,99.9
2023-02-08T07:50:26.845Z,99.9
2023-02-08T07:52:24.213Z,99.9
2023-02-08T07:53:26.937Z,99.9
2023-02-08T07:59:19.133Z,99.9
2023-02-08T08:05:19.420Z,99.9
2023-02-08T08:07:16.792Z,99.9
2023-02-08T08:13:09.203Z,99.9
2023-02-08T08:15:14.646Z,99.9
2023-02-08T08:17:12.032Z,99.9
2023-02-08T08:19:09.394Z,99.9
2023-02-08T08:21:06.795Z,99.9
2023-02-08T08:23:04.165Z,99.9
2023-02-08T08:27:00.558Z,99.9
2023-02-08T08:29:05.973Z,99.9
2023-02-08T08:33:00.748Z,99.9
2023-02-08T08:34:59.246Z,99.9
2023-02-08T08:36:55.692Z,99.9
2023-02-08T08:38:53.189Z,99.9
2023-02-08T08:40:50.672Z,99.9
2023-02-08T08:42:55.954Z,99.9
2023-02-08T08:46:50.821Z,99.9
2023-02-08T08:47:53.444Z,99.9
2023-02-08T08:49:50.825Z,99.9
2023-02-08T08:51:48.319Z,99.9
2023-02-08T08:53:45.841Z,99.9
2023-02-08T08:55:51.102Z,99.9
2023-02-08T08:57:48.515Z,99.9
2023-02-08T08:59:45.887Z,99.9
2023-02-08T09:05:38.401Z,99.9
2023-02-08T09:07:35.910Z,99.9
2023-02-08T09:09:41.205Z,99.9
2023-02-08T09:11:38.629Z,99.9
2023-02-08T09:13:36.039Z,99.8
2023-02-08T09:19:28.297Z,99.3
2023-02-08T09:25:28.456Z,98.2
2023-02-08T09:27:25.877Z,98.1
2023-02-08T09:29:23.326Z,97.7
2023-02-08T09:35:15.617Z,95.5
2023-02-08T09:39:18.437Z,94
2023-02-08T09:41:15.923Z,93.8
2023-02-08T09:42:18.542Z,93.4
2023-02-08T09:44:15.966Z,93.2
2023-02-08T09:46:13.422Z,92.9
2023-02-08T09:48:10.869Z,92.6
2023-02-08T09:50:16.224Z,91.9
2023-02-08T09:52:13.669Z,91.7
2023-02-08T09:54:11.109Z,91.5
2023-02-08T09:56:08.595Z,91.4
2023-02-08T09:58:06.032Z,91.1
2023-02-08T10:00:03.506Z,91
2023-02-08T10:02:00.962Z,90.8
2023-02-08T10:04:06.444Z,90.4
2023-02-08T10:09:58.738Z,90
2023-02-08T10:13:53.634Z,89.4
2023-02-08T10:15:51.089Z,88.6
2023-02-08T10:17:58.052Z,88.3
2023-02-08T10:19:53.941Z,88
2023-02-08T10:21:51.400Z,88
2023-02-08T10:23:48.899Z,87.7
2023-02-08T10:25:46.347Z,87.3
2023-02-08T10:33:44.175Z,84.2
2023-02-08T10:35:42.116Z,84
2023-02-08T10:38:08.533Z,83
2023-02-08T10:40:05.996Z,82.9
2023-02-08T10:42:03.508Z,82.7
2023-02-08T10:44:08.867Z,81.6
2023-02-08T10:46:06.404Z,81.1
2023-02-08T10:48:03.864Z,80.2
2023-02-08T10:50:01.358Z,76.9
2023-02-08T10:51:58.866Z,76.3
2023-02-08T10:53:56.393Z,76
2023-02-08T10:55:53.887Z,75.4
2023-02-08T10:57:59.282Z,74.5
2023-02-08T10:59:56.880Z,74
2023-02-08T11:01:54.276Z,73.8
2023-02-08T11:03:51.828Z,73.5
2023-02-08T11:05:49.342Z,72.8
2023-02-08T11:07:46.822Z,71.7
2023-02-08T11:09:44.324Z,70.9
2023-02-08T11:11:49.725Z,70.3
2023-02-08T11:13:47.293Z,70.2
2023-02-08T11:15:45.090Z,70.1
2023-02-08T11:19:39.804Z,67.6
2023-02-08T11:21:37.316Z,65.5
2023-02-08T11:23:34.851Z,65.1
2023-02-08T11:25:40.425Z,63.2
2023-02-08T11:27:37.804Z,62.3
2023-02-08T11:29:35.338Z,61.7
2023-02-08T11:32:35.549Z,59.4
2023-02-08T11:34:33.051Z,58.4
2023-02-08T11:36:32.552Z,56.9
2023-02-08T11:38:36.022Z,53.2
2023-02-08T11:40:33.602Z,52.2
2023-02-08T11:42:31.147Z,50.5
2023-02-08T11:44:28.682Z,46.9
2023-02-08T11:46:26.249Z,45.2
2023-02-08T11:48:23.813Z,43.9
2023-02-08T11:50:21.359Z,43.1
2023-02-08T11:52:26.824Z,41.6
2023-02-08T11:54:24.374Z,41.3
2023-02-08T11:56:21.970Z,40.3
2023-02-08T11:58:19.546Z,38.9
2023-02-08T12:00:17.104Z,38.6
2023-02-08T12:02:14.724Z,38.1
2023-02-08T12:04:12.265Z,37
2023-02-08T12:06:17.778Z,35.8
2023-02-08T12:08:15.346Z,35.4
2023-02-08T12:14:08.114Z,33.4
2023-02-08T12:16:06.050Z,32.5
2023-02-08T12:18:03.323Z,32
2023-02-08T12:20:08.797Z,31.5
2023-02-08T12:22:06.379Z,31.3
2023-02-08T12:25:06.698Z,30.9
2023-02-08T12:30:59.511Z,30.7
2023-02-08T12:33:04.978Z,30.3
2023-02-08T12:35:02.588Z,30
2023-02-08T12:37:00.162Z,29.6
2023-02-08T12:38:58.453Z,29.3
2023-02-08T12:40:55.302Z,28.8
2023-02-08T12:42:52.890Z,28.6
2023-02-08T12:44:50.451Z,28.2
2023-02-08T12:46:55.974Z,27.2
2023-02-08T12:48:53.513Z,26.7
2023-02-08T12:50:51.106Z,26.1
2023-02-08T12:52:48.684Z,25.9
2023-02-08T12:54:46.279Z,25.4
2023-02-08T13:00:46.921Z,23.8
2023-02-08T13:04:42.068Z,22.3
2023-02-08T13:06:39.622Z,22
2023-02-08T13:10:34.766Z,21.8
2023-02-08T13:12:32.320Z,21.5
2023-02-08T13:14:37.801Z,21.2
2023-02-08T13:16:35.384Z,21
2023-02-08T13:19:35.695Z,20.2
2023-02-08T13:21:33.192Z,19.9
2023-02-08T13:23:32.284Z,19.5
2023-02-08T13:25:28.274Z,19.2
2023-02-08T13:27:33.780Z,17.4
2023-02-08T13:29:31.329Z,15.9
2023-02-08T13:33:26.405Z,15.2
2023-02-08T13:35:23.957Z,14.7
2023-02-08T13:37:25.306Z,14.7
2023-02-08T13:39:19.092Z,14.6
2023-02-08T13:41:24.577Z,15.3
2023-02-08T13:43:34.284Z,15.8
2023-02-08T13:45:19.747Z,16.2
2023-02-08T13:47:17.296Z,16.6
2023-02-08T13:49:14.896Z,17
2023-02-08T13:53:10.070Z,17.7
2023-02-08T13:55:15.574Z,18.4
2023-02-08T14:01:08.391Z,19.5
2023-02-08T14:03:06.056Z,19.8
2023-02-08T14:05:04.855Z,20
2023-02-08T14:07:01.184Z,20.1
2023-02-08T14:11:05.826Z,20.3
2023-02-08T14:13:03.443Z,20.1
2023-02-08T14:15:30.364Z,19.8
2023-02-08T14:17:27.905Z,19.8
2023-02-08T14:19:25.516Z,19.8
2023-02-08T14:21:30.992Z,20.1
2023-02-08T14:23:28.604Z,20.4
2023-02-08T14:25:26.238Z,20.8
2023-02-08T14:27:23.824Z,20.9
2023-02-08T14:29:21.675Z,21.1
2023-02-08T14:31:19.146Z,21.1
2023-02-08T14:33:16.654Z,21.2
2023-02-08T14:35:22.170Z,21.4
2023-02-08T14:39:17.360Z,21.8
2023-02-08T14:41:14.966Z,22.1
2023-02-08T14:43:12.560Z,22.4
2023-02-08T14:47:07.794Z,23
2023-02-08T14:51:10.941Z,23.9
2023-02-08T14:53:08.487Z,24
2023-02-08T14:57:03.675Z,24
2023-02-08T14:59:01.276Z,24.2
2023-02-08T15:00:59.027Z,24.3
2023-02-08T15:08:02.364Z,24.4
2023-02-08T15:13:55.186Z,24.4
2023-02-08T15:17:58.254Z,24.7
2023-02-08T15:19:55.801Z,24.7
2023-02-08T15:21:53.402Z,24.7
2023-02-08T15:23:50.981Z,24.6
2023-02-08T15:25:48.561Z,24.6
2023-02-08T15:27:46.162Z,24.5
2023-02-08T15:29:51.736Z,24.7
2023-02-08T15:31:49.269Z,24.8
2023-02-08T15:33:46.837Z,24.8
2023-02-08T15:35:44.412Z,24.8
2023-02-08T15:39:39.630Z,24.9
2023-02-08T15:41:37.177Z,24.9
2023-02-08T15:43:42.705Z,25
2023-02-08T15:45:40.324Z,25.2
2023-02-08T15:47:37.876Z,25.4
2023-02-08T15:49:35.442Z,25.5
2023-02-08T15:53:30.636Z,25.9
2023-02-08T15:55:28.251Z,26.1
2023-02-08T15:57:33.711Z,26.5
2023-02-08T15:59:32.131Z,26.7
2023-02-08T16:02:32.517Z,27.2
2023-02-08T16:04:30.095Z,27.4
2023-02-08T16:08:27.268Z,27.6
2023-02-08T16:10:30.802Z,27.8
2023-02-08T16:12:28.370Z,27.8
2023-02-08T16:14:28.986Z,27.9
2023-02-08T16:16:23.557Z,27.9
2023-02-08T16:18:21.083Z,27.9
2023-02-08T16:20:18.699Z,27.9
2023-02-08T16:22:16.601Z,28
2023-02-08T16:24:21.722Z,28.4
2023-02-08T16:28:17.005Z,28.7
2023-02-08T16:30:14.468Z,28.9
2023-02-08T16:32:13.766Z,29.1
2023-02-08T16:34:09.609Z,29.2
2023-02-08T16:38:12.664Z,29.6
2023-02-08T16:40:10.245Z,29.8
2023-02-08T16:46:03.032Z,30.8
2023-02-08T16:48:13.471Z,31.2
2023-02-08T16:49:58.139Z,32.1
2023-02-08T16:52:03.633Z,34
2023-02-08T16:54:01.199Z,34.9
2023-02-08T16:55:58.769Z,35.5
2023-02-08T16:57:01.522Z,35.8
2023-02-08T17:00:56.678Z,36.5
2023-02-08T17:02:54.208Z,37
2023-02-08T17:04:59.700Z,37.3
2023-02-08T17:08:54.847Z,37.5
2023-02-08T17:10:52.377Z,37.6
2023-02-08T17:14:47.524Z,37.7
2023-02-08T17:16:45.080Z,37.8
2023-02-08T17:18:50.530Z,38
2023-02-08T17:20:48.082Z,38.3
2023-02-08T17:24:43.209Z,38.6
2023-02-08T17:26:40.763Z,38.8
2023-02-08T17:32:41.323Z,39.1
2023-02-08T17:36:36.456Z,39.1
2023-02-08T17:38:33.992Z,39.1
2023-02-08T17:40:31.558Z,39.1
2023-02-08T17:46:32.076Z,39.1
2023-02-08T17:48:29.646Z,39.2
2023-02-08T17:52:50.475Z,40.3
2023-02-08T17:58:53.411Z,39.8
2023-02-08T18:04:43.714Z,39.3
2023-02-08T18:06:41.291Z,39.5
2023-02-08T18:10:36.394Z,39.9
2023-02-08T18:12:41.844Z,40.1
2023-02-08T18:16:36.981Z,40.2
2023-02-08T18:18:34.506Z,40.4
2023-02-08T18:20:32.053Z,40.3
2023-02-08T18:28:30.261Z,39.6
2023-02-08T18:32:25.236Z,39.7
2023-02-08T18:34:22.763Z,39.9
2023-02-08T18:36:20.313Z,39.9
2023-02-08T18:38:17.878Z,39.9
2023-02-08T18:40:23.312Z,39.7
2023-02-08T18:42:20.865Z,39.6
2023-02-08T18:44:18.418Z,39.5
2023-02-08T18:45:21.098Z,39.4
2023-02-08T18:55:16.705Z,40.1
2023-02-08T18:57:14.253Z,40.3
2023-02-08T18:59:11.794Z,40.2
2023-02-08T19:03:06.885Z,40.6
2023-02-08T19:05:04.435Z,41.2
2023-02-08T19:07:09.864Z,42.7
2023-02-08T19:09:07.365Z,43
2023-02-08T19:11:04.913Z,43.7
2023-02-08T19:13:02.457Z,44.1
2023-02-08T19:14:59.978Z,44.6
2023-02-08T19:18:55.088Z,45
2023-02-08T19:21:00.504Z,45.1
2023-02-08T19:26:53.110Z,44.7
2023-02-08T19:28:50.650Z,45
2023-02-08T19:34:51.094Z,44.9
2023-02-08T19:38:46.184Z,44.3
2023-02-08T19:39:48.774Z,44
2023-02-08T19:43:43.786Z,44
2023-02-08T19:45:41.400Z,44.2
2023-02-08T19:47:51.577Z,44.9
2023-02-08T19:49:45.767Z,45
2023-02-08T19:51:43.293Z,45.2
2023-02-08T19:53:40.830Z,45.3
2023-02-08T19:55:38.354Z,45.2
2023-02-08T19:57:35.879Z,45.2
2023-02-08T19:59:35.211Z,45.1
2023-02-08T20:01:38.793Z,45.5
2023-02-08T20:03:36.327Z,45.6
2023-02-08T20:05:33.864Z,46
2023-02-08T20:07:31.381Z,46.2
2023-02-08T20:11:26.437Z,46.5
2023-02-08T20:13:23.972Z,46.6
2023-02-08T20:15:29.389Z,46.8
2023-02-08T20:17:26.899Z,46.9
2023-02-08T20:19:24.413Z,47.1
2023-02-08T20:21:21.947Z,47.3
2023-02-08T20:25:17.008Z,47.5
2023-02-08T20:27:14.512Z,47.4
2023-02-08T20:31:17.410Z,47.2
2023-02-08T20:33:15.775Z,47.3
2023-02-08T20:34:17.542Z,47.4
2023-02-08T20:38:12.550Z,47.8
2023-02-08T20:40:10.105Z,48
2023-02-08T20:42:15.463Z,48.2
2023-02-08T20:44:12.963Z,48.4
2023-02-08T20:46:10.513Z,48.7
2023-02-08T20:48:07.999Z,48.7
2023-02-08T20:50:16.763Z,48.7
2023-02-08T20:52:03.229Z,48.6
2023-02-08T20:54:00.552Z,48.2
2023-02-08T20:56:05.984Z,47.3
2023-02-08T20:58:03.553Z,46.9
2023-02-08T21:00:01.020Z,46.6
2023-02-08T21:01:58.613Z,46.2
2023-02-08T21:03:56.045Z,46.3
2023-02-08T21:05:53.565Z,46.5
2023-02-08T21:07:51.066Z,46.8
2023-02-08T21:13:51.524Z,47.8
2023-02-08T21:15:49.017Z,48.1
2023-02-08T21:17:46.549Z,48.4
2023-02-08T21:19:44.092Z,48.8
2023-02-08T21:21:41.548Z,49.2
2023-02-08T21:25:44.466Z,50.1
2023-02-08T21:27:42.007Z,50
2023-02-08T21:30:08.885Z,49
2023-02-08T21:32:06.468Z,48.7
2023-02-08T21:34:03.918Z,48.5
2023-02-08T21:36:09.306Z,48.6
2023-02-08T21:38:06.901Z,48.6
2023-02-08T21:40:04.422Z,49
2023-02-08T21:42:01.919Z,49
2023-02-08T21:43:59.425Z,49
2023-02-08T21:45:56.956Z,48.7
2023-02-08T21:47:54.408Z,48.5
2023-02-08T21:49:59.832Z,48.3
2023-02-08T21:51:57.306Z,48.4
2023-02-08T21:53:54.812Z,48.6
2023-02-08T21:55:52.301Z,48.9
2023-02-08T21:59:47.312Z,49.1
2023-02-08T22:01:44.940Z,49.1
2023-02-08T22:03:50.419Z,49
2023-02-08T22:05:47.800Z,49
2023-02-08T22:07:45.296Z,48.9
2023-02-08T22:09:42.814Z,48.9
2023-02-08T22:11:40.301Z,48.8
2023-02-08T22:13:37.822Z,48.6
2023-02-08T22:15:35.386Z,48.5
2023-02-08T22:17:40.685Z,48.2
2023-02-08T22:19:38.165Z,48.2
2023-02-08T22:21:35.659Z,48.3
2023-02-08T22:24:35.859Z,48.5
2023-02-08T22:26:33.337Z,48.6
2023-02-08T22:28:30.968Z,48.7
2023-02-08T22:30:36.267Z,48.9
2023-02-08T22:34:31.230Z,49
2023-02-08T22:36:28.800Z,49.1
2023-02-08T22:38:26.213Z,49.4
2023-02-08T22:40:23.717Z,49.7
2023-02-08T22:42:21.197Z,49.9
2023-02-08T22:44:26.561Z,50.5
2023-02-08T22:46:24.108Z,50.6
2023-02-08T22:48:21.532Z,50.7
2023-02-08T22:50:19.067Z,50.7
2023-02-08T22:52:16.573Z,50.6
2023-02-08T22:54:14.179Z,50.5
2023-02-08T22:56:11.654Z,50.4
2023-02-08T22:58:17.053Z,50
2023-02-08T23:00:14.668Z,49.7
2023-02-08T23:02:12.002Z,49.5
2023-02-08T23:06:06.956Z,48.9
2023-02-08T23:08:04.450Z,48.6
2023-02-08T23:10:01.925Z,48.2
2023-02-08T23:16:02.340Z,46.9
2023-02-08T23:17:05.005Z,46.7
2023-02-08T23:19:02.592Z,46.7
2023-02-08T23:21:00.118Z,46.7
2023-02-08T23:22:57.540Z,46.8
2023-02-08T23:25:02.988Z,47.3
2023-02-08T23:27:00.421Z,47.6
2023-02-08T23:28:57.890Z,47.7
2023-02-08T23:30:55.497Z,47.8
2023-02-08T23:32:52.849Z,47.9
2023-02-08T23:34:50.353Z,48
2023-02-08T23:38:53.213Z,47.8
2023-02-08T23:42:48.194Z,47.9
2023-02-08T23:44:45.669Z,47.8
2023-02-08T23:48:40.638Z,47.5
2023-02-08T23:50:38.135Z,47.4
2023-02-08T23:52:43.513Z,47.1
2023-02-08T23:54:40.969Z,47
2023-02-08T23:58:35.948Z,46.8
